sensor_id;sensor_type;location;lat;lon;timestamp;P1;durP1;ratioP1;P2;durP2;ratioP2
1336;SDS011;662;48.814;9.318;2022-10-16T00:01:33;3.00;;;2.53;;
1336;SDS011;662;48.814;9.318;2022-10-16T00:04:00;3.50;;;2.70;;
1336;SDS011;662;48.814;9.318;2022-10-16T00:06:26;4.63;;;2.73;;
1336;SDS011;662;48.814;9.318;2022-10-16T00:08:52;2.73;;;2.30;;
1336;SDS011;662;48.814;9.318;2022-10-16T00:11:40;4.77;;;2.63;;
1336;SDS011;662;48.814;9.318;2022-10-16T00:14:06;4.10;;;3.27;;
1336;SDS011;662;48.814;9.318;2022-10-16T00:16:35;3.97;;;2.60;;
1336;SDS011;662;48.814;9.318;2022-10-16T00:19:00;8.93;;;3.43;;
1336;SDS011;662;48.814;9.318;2022-10-16T00:21:28;5.10;;;3.07;;
1336;SDS011;662;48.814;9.318;2022-10-16T00:23:56;4.00;;;2.47;;
1336;SDS011;662;48.814;9.318;2022-10-16T00:26:24;8.17;;;2.90;;
1336;SDS011;662;48.814;9.318;2022-10-16T00:28:51;4.87;;;2.90;;
1336;SDS011;662;48.814;9.318;2022-10-16T00:31:18;6.63;;;2.77;;
1336;SDS011;662;48.814;9.318;2022-10-16T00:33:45;5.83;;;2.83;;
1336;SDS011;662;48.814;9.318;2022-10-16T00:36:12;4.80;;;2.60;;
1336;SDS011;662;48.814;9.318;2022-10-16T00:38:39;3.33;;;3.00;;
1336;SDS011;662;48.814;9.318;2022-10-16T00:41:06;2.70;;;2.50;;
1336;SDS011;662;48.814;9.318;2022-10-16T00:43:36;4.43;;;2.37;;
1336;SDS011;662;48.814;9.318;2022-10-16T00:46:14;3.37;;;2.23;;
1336;SDS011;662;48.814;9.318;2022-10-16T00:48:52;6.40;;;2.53;;
1336;SDS011;662;48.814;9.318;2022-10-16T00:51:30;4.33;;;2.20;;
1336;SDS011;662;48.814;9.318;2022-10-16T00:53:59;4.07;;;2.50;;
1336;SDS011;662;48.814;9.318;2022-10-16T00:56:27;5.70;;;2.43;;
1336;SDS011;662;48.814;9.318;2022-10-16T00:58:53;8.50;;;2.73;;
1336;SDS011;662;48.814;9.318;2022-10-16T01:01:18;2.93;;;2.47;;
1336;SDS011;662;48.814;9.318;2022-10-16T01:03:44;6.40;;;2.73;;
1336;SDS011;662;48.814;9.318;2022-10-16T01:06:21;4.10;;;2.90;;
1336;SDS011;662;48.814;9.318;2022-10-16T01:09:08;2.63;;;2.43;;
1336;SDS011;662;48.814;9.318;2022-10-16T01:11:42;4.90;;;2.70;;
1336;SDS011;662;48.814;9.318;2022-10-16T01:16:55;7.47;;;3.50;;
1336;SDS011;662;48.814;9.318;2022-10-16T01:19:38;7.27;;;3.20;;
1336;SDS011;662;48.814;9.318;2022-10-16T01:22:39;4.53;;;3.20;;
1336;SDS011;662;48.814;9.318;2022-10-16T01:25:30;3.40;;;3.10;;
1336;SDS011;662;48.814;9.318;2022-10-16T01:28:11;4.57;;;2.20;;
1336;SDS011;662;48.814;9.318;2022-10-16T01:30:39;5.03;;;3.30;;
1336;SDS011;662;48.814;9.318;2022-10-16T01:33:18;4.03;;;2.70;;
1336;SDS011;662;48.814;9.318;2022-10-16T01:35:48;4.03;;;2.50;;
1336;SDS011;662;48.814;9.318;2022-10-16T01:38:23;4.50;;;2.43;;
1336;SDS011;662;48.814;9.318;2022-10-16T01:40:58;3.03;;;2.13;;
1336;SDS011;662;48.814;9.318;2022-10-16T01:43:30;8.70;;;2.90;;
1336;SDS011;662;48.814;9.318;2022-10-16T01:46:00;3.13;;;2.83;;
1336;SDS011;662;48.814;9.318;2022-10-16T01:48:26;3.17;;;2.60;;
1336;SDS011;662;48.814;9.318;2022-10-16T01:50:59;9.53;;;2.87;;
1336;SDS011;662;48.814;9.318;2022-10-16T01:53:30;5.63;;;2.77;;
1336;SDS011;662;48.814;9.318;2022-10-16T01:55:56;3.50;;;3.20;;
1336;SDS011;662;48.814;9.318;2022-10-16T01:58:25;3.23;;;2.77;;
1336;SDS011;662;48.814;9.318;2022-10-16T02:00:52;6.40;;;3.17;;
1336;SDS011;662;48.814;9.318;2022-10-16T02:03:19;5.97;;;3.17;;
1336;SDS011;662;48.814;9.318;2022-10-16T02:05:50;4.63;;;2.70;;
1336;SDS011;662;48.814;9.318;2022-10-16T02:08:19;3.20;;;3.00;;
1336;SDS011;662;48.814;9.318;2022-10-16T02:10:47;4.30;;;3.57;;
1336;SDS011;662;48.814;9.318;2022-10-16T02:14:13;6.57;;;2.63;;
1336;SDS011;662;48.814;9.318;2022-10-16T02:16:13;4.07;;;2.40;;
1336;SDS011;662;48.814;9.318;2022-10-16T02:18:39;5.33;;;2.80;;
1336;SDS011;662;48.814;9.318;2022-10-16T02:21:13;4.30;;;2.70;;
1336;SDS011;662;48.814;9.318;2022-10-16T02:23:51;4.90;;;2.33;;
1336;SDS011;662;48.814;9.318;2022-10-16T02:26:23;2.70;;;2.07;;
1336;SDS011;662;48.814;9.318;2022-10-16T02:28:58;2.03;;;1.93;;
1336;SDS011;662;48.814;9.318;2022-10-16T02:31:30;3.10;;;2.57;;
1336;SDS011;662;48.814;9.318;2022-10-16T02:33:59;2.93;;;2.10;;
1336;SDS011;662;48.814;9.318;2022-10-16T02:36:28;4.57;;;2.83;;
1336;SDS011;662;48.814;9.318;2022-10-16T02:38:54;3.47;;;2.20;;
1336;SDS011;662;48.814;9.318;2022-10-16T02:41:21;8.33;;;2.60;;
1336;SDS011;662;48.814;9.318;2022-10-16T02:43:47;2.13;;;1.93;;
1336;SDS011;662;48.814;9.318;2022-10-16T02:46:14;3.40;;;2.27;;
1336;SDS011;662;48.814;9.318;2022-10-16T02:48:40;3.73;;;2.17;;
1336;SDS011;662;48.814;9.318;2022-10-16T02:51:06;2.97;;;1.83;;
1336;SDS011;662;48.814;9.318;2022-10-16T02:53:31;2.47;;;2.27;;
1336;SDS011;662;48.814;9.318;2022-10-16T02:55:57;3.40;;;2.00;;
1336;SDS011;662;48.814;9.318;2022-10-16T02:58:22;4.27;;;2.50;;
1336;SDS011;662;48.814;9.318;2022-10-16T03:00:48;2.63;;;2.40;;
1336;SDS011;662;48.814;9.318;2022-10-16T03:03:13;9.20;;;2.73;;
1336;SDS011;662;48.814;9.318;2022-10-16T03:05:39;2.80;;;2.50;;
1336;SDS011;662;48.814;9.318;2022-10-16T03:08:04;7.20;;;2.40;;
1336;SDS011;662;48.814;9.318;2022-10-16T03:10:30;4.33;;;1.90;;
1336;SDS011;662;48.814;9.318;2022-10-16T03:12:55;3.40;;;2.20;;
1336;SDS011;662;48.814;9.318;2022-10-16T03:15:21;2.33;;;2.20;;
1336;SDS011;662;48.814;9.318;2022-10-16T03:17:47;10.70;;;2.83;;
1336;SDS011;662;48.814;9.318;2022-10-16T03:20:12;2.47;;;2.27;;
1336;SDS011;662;48.814;9.318;2022-10-16T03:22:38;6.70;;;2.60;;
1336;SDS011;662;48.814;9.318;2022-10-16T03:25:03;5.47;;;2.80;;
1336;SDS011;662;48.814;9.318;2022-10-16T03:27:29;4.03;;;2.17;;
1336;SDS011;662;48.814;9.318;2022-10-16T03:29:55;3.30;;;2.30;;
1336;SDS011;662;48.814;9.318;2022-10-16T03:32:20;3.17;;;2.10;;
1336;SDS011;662;48.814;9.318;2022-10-16T03:34:46;2.77;;;2.03;;
1336;SDS011;662;48.814;9.318;2022-10-16T03:37:12;4.63;;;2.80;;
1336;SDS011;662;48.814;9.318;2022-10-16T03:39:37;2.80;;;2.30;;
1336;SDS011;662;48.814;9.318;2022-10-16T03:42:03;2.60;;;2.40;;
1336;SDS011;662;48.814;9.318;2022-10-16T03:44:29;2.87;;;2.37;;
1336;SDS011;662;48.814;9.318;2022-10-16T03:46:54;2.77;;;2.20;;
1336;SDS011;662;48.814;9.318;2022-10-16T03:49:20;3.67;;;2.20;;
1336;SDS011;662;48.814;9.318;2022-10-16T03:51:45;2.73;;;2.23;;
1336;SDS011;662;48.814;9.318;2022-10-16T03:54:11;5.77;;;2.80;;
1336;SDS011;662;48.814;9.318;2022-10-16T03:56:36;2.10;;;1.90;;
1336;SDS011;662;48.814;9.318;2022-10-16T03:59:02;3.13;;;2.30;;
1336;SDS011;662;48.814;9.318;2022-10-16T04:01:28;7.23;;;2.40;;
1336;SDS011;662;48.814;9.318;2022-10-16T04:03:53;3.13;;;2.43;;
1336;SDS011;662;48.814;9.318;2022-10-16T04:06:19;4.93;;;2.30;;
1336;SDS011;662;48.814;9.318;2022-10-16T04:08:45;4.30;;;2.60;;
1336;SDS011;662;48.814;9.318;2022-10-16T04:11:10;3.00;;;2.20;;
1336;SDS011;662;48.814;9.318;2022-10-16T04:13:36;2.97;;;2.37;;
1336;SDS011;662;48.814;9.318;2022-10-16T04:16:02;2.30;;;2.20;;
1336;SDS011;662;48.814;9.318;2022-10-16T04:18:28;2.70;;;2.40;;
1336;SDS011;662;48.814;9.318;2022-10-16T04:20:54;4.33;;;2.30;;
1336;SDS011;662;48.814;9.318;2022-10-16T04:23:19;3.00;;;2.23;;
1336;SDS011;662;48.814;9.318;2022-10-16T04:25:45;3.00;;;2.60;;
1336;SDS011;662;48.814;9.318;2022-10-16T04:28:11;3.10;;;2.10;;
1336;SDS011;662;48.814;9.318;2022-10-16T04:30:39;3.60;;;2.40;;
1336;SDS011;662;48.814;9.318;2022-10-16T04:33:05;2.70;;;2.40;;
1336;SDS011;662;48.814;9.318;2022-10-16T04:35:30;7.13;;;3.00;;
1336;SDS011;662;48.814;9.318;2022-10-16T04:37:59;2.53;;;2.33;;
1336;SDS011;662;48.814;9.318;2022-10-16T04:40:24;2.70;;;2.40;;
1336;SDS011;662;48.814;9.318;2022-10-16T04:42:50;2.37;;;2.17;;
1336;SDS011;662;48.814;9.318;2022-10-16T04:45:16;7.23;;;2.63;;
1336;SDS011;662;48.814;9.318;2022-10-16T04:47:41;3.30;;;2.40;;
1336;SDS011;662;48.814;9.318;2022-10-16T04:50:07;3.47;;;2.03;;
1336;SDS011;662;48.814;9.318;2022-10-16T04:52:33;3.47;;;2.50;;
1336;SDS011;662;48.814;9.318;2022-10-16T04:54:59;2.60;;;2.17;;
1336;SDS011;662;48.814;9.318;2022-10-16T04:57:27;3.23;;;2.43;;
1336;SDS011;662;48.814;9.318;2022-10-16T04:59:53;9.17;;;3.03;;
1336;SDS011;662;48.814;9.318;2022-10-16T05:02:19;3.40;;;2.33;;
1336;SDS011;662;48.814;9.318;2022-10-16T05:04:45;4.07;;;2.30;;
1336;SDS011;662;48.814;9.318;2022-10-16T05:07:10;2.43;;;2.20;;
1336;SDS011;662;48.814;9.318;2022-10-16T05:09:36;3.27;;;2.70;;
1336;SDS011;662;48.814;9.318;2022-10-16T05:12:02;2.13;;;2.03;;
1336;SDS011;662;48.814;9.318;2022-10-16T05:14:28;3.27;;;2.30;;
1336;SDS011;662;48.814;9.318;2022-10-16T05:16:54;3.53;;;1.90;;
1336;SDS011;662;48.814;9.318;2022-10-16T05:19:20;4.03;;;2.33;;
1336;SDS011;662;48.814;9.318;2022-10-16T05:21:45;4.40;;;2.47;;
1336;SDS011;662;48.814;9.318;2022-10-16T05:24:11;4.80;;;2.10;;
1336;SDS011;662;48.814;9.318;2022-10-16T05:26:36;2.93;;;2.23;;
1336;SDS011;662;48.814;9.318;2022-10-16T05:29:03;4.10;;;3.70;;
1336;SDS011;662;48.814;9.318;2022-10-16T05:31:28;7.60;;;3.63;;
1336;SDS011;662;48.814;9.318;2022-10-16T05:33:58;6.77;;;3.90;;
1336;SDS011;662;48.814;9.318;2022-10-16T05:36:24;5.33;;;3.53;;
1336;SDS011;662;48.814;9.318;2022-10-16T05:38:50;3.60;;;3.30;;
1336;SDS011;662;48.814;9.318;2022-10-16T05:41:17;4.53;;;3.00;;
1336;SDS011;662;48.814;9.318;2022-10-16T05:43:47;9.17;;;3.23;;
1336;SDS011;662;48.814;9.318;2022-10-16T05:46:13;3.73;;;3.00;;
1336;SDS011;662;48.814;9.318;2022-10-16T05:48:39;3.10;;;2.90;;
1336;SDS011;662;48.814;9.318;2022-10-16T05:51:05;3.73;;;2.70;;
1336;SDS011;662;48.814;9.318;2022-10-16T05:53:34;3.13;;;2.83;;
1336;SDS011;662;48.814;9.318;2022-10-16T05:56:01;3.03;;;2.73;;
1336;SDS011;662;48.814;9.318;2022-10-16T05:58:28;6.40;;;3.30;;
1336;SDS011;662;48.814;9.318;2022-10-16T06:01:01;6.50;;;3.23;;
1336;SDS011;662;48.814;9.318;2022-10-16T06:03:28;6.97;;;3.00;;
1336;SDS011;662;48.814;9.318;2022-10-16T06:05:54;4.60;;;2.47;;
1336;SDS011;662;48.814;9.318;2022-10-16T06:08:20;2.27;;;2.07;;
1336;SDS011;662;48.814;9.318;2022-10-16T06:10:47;2.73;;;2.43;;
1336;SDS011;662;48.814;9.318;2022-10-16T06:13:14;6.10;;;3.00;;
1336;SDS011;662;48.814;9.318;2022-10-16T06:15:41;4.53;;;2.50;;
1336;SDS011;662;48.814;9.318;2022-10-16T06:18:08;6.80;;;2.73;;
1336;SDS011;662;48.814;9.318;2022-10-16T06:20:34;3.83;;;3.30;;
1336;SDS011;662;48.814;9.318;2022-10-16T06:23:00;6.93;;;3.30;;
1336;SDS011;662;48.814;9.318;2022-10-16T06:25:26;4.73;;;3.17;;
1336;SDS011;662;48.814;9.318;2022-10-16T06:27:52;7.10;;;2.87;;
1336;SDS011;662;48.814;9.318;2022-10-16T06:30:17;3.67;;;2.83;;
1336;SDS011;662;48.814;9.318;2022-10-16T06:32:43;4.40;;;3.30;;
1336;SDS011;662;48.814;9.318;2022-10-16T06:35:08;6.03;;;3.07;;
1336;SDS011;662;48.814;9.318;2022-10-16T06:37:34;6.43;;;2.90;;
1336;SDS011;662;48.814;9.318;2022-10-16T06:39:59;4.80;;;3.17;;
1336;SDS011;662;48.814;9.318;2022-10-16T06:42:25;5.00;;;2.40;;
1336;SDS011;662;48.814;9.318;2022-10-16T06:44:51;2.80;;;2.60;;
1336;SDS011;662;48.814;9.318;2022-10-16T06:47:16;4.97;;;2.80;;
1336;SDS011;662;48.814;9.318;2022-10-16T06:49:42;3.63;;;3.33;;
1336;SDS011;662;48.814;9.318;2022-10-16T06:52:07;3.77;;;2.83;;
1336;SDS011;662;48.814;9.318;2022-10-16T06:54:33;4.30;;;2.63;;
1336;SDS011;662;48.814;9.318;2022-10-16T06:56:59;3.13;;;2.20;;
1336;SDS011;662;48.814;9.318;2022-10-16T06:59:25;4.30;;;2.83;;
1336;SDS011;662;48.814;9.318;2022-10-16T07:01:50;3.73;;;2.30;;
1336;SDS011;662;48.814;9.318;2022-10-16T07:04:16;3.50;;;2.30;;
1336;SDS011;662;48.814;9.318;2022-10-16T07:06:41;3.13;;;2.30;;
1336;SDS011;662;48.814;9.318;2022-10-16T07:09:08;4.63;;;1.97;;
1336;SDS011;662;48.814;9.318;2022-10-16T07:11:35;5.97;;;2.33;;
1336;SDS011;662;48.814;9.318;2022-10-16T07:14:02;7.30;;;2.13;;
1336;SDS011;662;48.814;9.318;2022-10-16T07:16:28;3.23;;;2.60;;
1336;SDS011;662;48.814;9.318;2022-10-16T07:18:56;5.43;;;2.80;;
1336;SDS011;662;48.814;9.318;2022-10-16T07:21:24;3.80;;;2.90;;
1336;SDS011;662;48.814;9.318;2022-10-16T07:23:51;5.50;;;3.30;;
1336;SDS011;662;48.814;9.318;2022-10-16T07:26:18;5.00;;;2.50;;
1336;SDS011;662;48.814;9.318;2022-10-16T07:28:44;2.80;;;2.43;;
1336;SDS011;662;48.814;9.318;2022-10-16T07:31:11;4.13;;;2.10;;
1336;SDS011;662;48.814;9.318;2022-10-16T07:33:41;2.83;;;2.63;;
1336;SDS011;662;48.814;9.318;2022-10-16T07:36:09;7.17;;;2.57;;
1336;SDS011;662;48.814;9.318;2022-10-16T07:38:35;4.77;;;2.93;;
1336;SDS011;662;48.814;9.318;2022-10-16T07:41:02;4.90;;;2.40;;
1336;SDS011;662;48.814;9.318;2022-10-16T07:43:29;2.93;;;2.60;;
1336;SDS011;662;48.814;9.318;2022-10-16T07:45:55;2.80;;;2.50;;
1336;SDS011;662;48.814;9.318;2022-10-16T07:48:21;6.10;;;2.50;;
1336;SDS011;662;48.814;9.318;2022-10-16T07:50:47;7.77;;;3.10;;
1336;SDS011;662;48.814;9.318;2022-10-16T07:53:13;4.07;;;2.93;;
1336;SDS011;662;48.814;9.318;2022-10-16T07:55:39;3.03;;;2.73;;
1336;SDS011;662;48.814;9.318;2022-10-16T07:58:05;3.17;;;2.77;;
1336;SDS011;662;48.814;9.318;2022-10-16T08:00:31;3.90;;;3.10;;
1336;SDS011;662;48.814;9.318;2022-10-16T08:02:58;4.70;;;2.33;;
1336;SDS011;662;48.814;9.318;2022-10-16T08:05:27;6.00;;;2.73;;
1336;SDS011;662;48.814;9.318;2022-10-16T08:07:53;2.70;;;2.50;;
1336;SDS011;662;48.814;9.318;2022-10-16T08:10:19;3.10;;;2.47;;
1336;SDS011;662;48.814;9.318;2022-10-16T08:12:47;2.77;;;2.57;;
1336;SDS011;662;48.814;9.318;2022-10-16T08:15:12;4.00;;;3.00;;
1336;SDS011;662;48.814;9.318;2022-10-16T08:17:38;3.43;;;3.00;;
1336;SDS011;662;48.814;9.318;2022-10-16T08:20:03;3.23;;;2.80;;
1336;SDS011;662;48.814;9.318;2022-10-16T08:22:29;2.83;;;2.50;;
1336;SDS011;662;48.814;9.318;2022-10-16T08:24:55;7.63;;;2.80;;
1336;SDS011;662;48.814;9.318;2022-10-16T08:27:20;4.13;;;2.30;;
1336;SDS011;662;48.814;9.318;2022-10-16T08:29:48;7.47;;;2.77;;
1336;SDS011;662;48.814;9.318;2022-10-16T08:32:13;3.03;;;2.73;;
1336;SDS011;662;48.814;9.318;2022-10-16T08:34:39;3.20;;;2.90;;
1336;SDS011;662;48.814;9.318;2022-10-16T08:37:05;4.67;;;2.90;;
1336;SDS011;662;48.814;9.318;2022-10-16T08:39:32;3.07;;;2.87;;
1336;SDS011;662;48.814;9.318;2022-10-16T08:47:38;5.33;;;2.50;;
1336;SDS011;662;48.814;9.318;2022-10-16T08:50:24;4.40;;;2.50;;
1336;SDS011;662;48.814;9.318;2022-10-16T08:52:55;4.03;;;2.40;;
1336;SDS011;662;48.814;9.318;2022-10-16T08:55:38;2.40;;;2.20;;
1336;SDS011;662;48.814;9.318;2022-10-16T08:58:16;4.90;;;1.90;;
1336;SDS011;662;48.814;9.318;2022-10-16T09:00:47;6.40;;;2.40;;
1336;SDS011;662;48.814;9.318;2022-10-16T09:03:29;2.43;;;2.10;;
1336;SDS011;662;48.814;9.318;2022-10-16T09:06:05;2.53;;;1.70;;
1336;SDS011;662;48.814;9.318;2022-10-16T09:14:19;2.03;;;1.90;;
1336;SDS011;662;48.814;9.318;2022-10-16T09:17:04;2.00;;;1.80;;
1336;SDS011;662;48.814;9.318;2022-10-16T09:22:42;1.60;;;1.47;;
1336;SDS011;662;48.814;9.318;2022-10-16T09:25:26;4.87;;;1.83;;
1336;SDS011;662;48.814;9.318;2022-10-16T09:27:52;2.60;;;1.50;;
1336;SDS011;662;48.814;9.318;2022-10-16T09:30:19;3.23;;;1.80;;
1336;SDS011;662;48.814;9.318;2022-10-16T09:32:47;1.63;;;1.20;;
1336;SDS011;662;48.814;9.318;2022-10-16T09:35:16;2.50;;;1.90;;
1336;SDS011;662;48.814;9.318;2022-10-16T09:37:50;1.67;;;1.47;;
1336;SDS011;662;48.814;9.318;2022-10-16T09:40:26;2.80;;;2.10;;
1336;SDS011;662;48.814;9.318;2022-10-16T09:43:02;2.00;;;1.63;;
1336;SDS011;662;48.814;9.318;2022-10-16T09:45:28;2.90;;;1.53;;
1336;SDS011;662;48.814;9.318;2022-10-16T09:47:54;1.53;;;1.43;;
1336;SDS011;662;48.814;9.318;2022-10-16T09:50:27;1.60;;;1.50;;
1336;SDS011;662;48.814;9.318;2022-10-16T09:55:52;5.53;;;2.03;;
1336;SDS011;662;48.814;9.318;2022-10-16T09:58:21;3.47;;;1.47;;
1336;SDS011;662;48.814;9.318;2022-10-16T10:00:48;3.53;;;1.33;;
1336;SDS011;662;48.814;9.318;2022-10-16T10:03:38;2.63;;;1.37;;
1336;SDS011;662;48.814;9.318;2022-10-16T10:06:14;2.23;;;1.60;;
1336;SDS011;662;48.814;9.318;2022-10-16T10:08:56;1.57;;;1.47;;
1336;SDS011;662;48.814;9.318;2022-10-16T10:11:41;3.10;;;1.30;;
1336;SDS011;662;48.814;9.318;2022-10-16T10:14:14;4.20;;;1.40;;
1336;SDS011;662;48.814;9.318;2022-10-16T10:16:45;1.57;;;1.47;;
1336;SDS011;662;48.814;9.318;2022-10-16T10:19:15;4.13;;;2.10;;
1336;SDS011;662;48.814;9.318;2022-10-16T10:21:45;3.17;;;2.40;;
1336;SDS011;662;48.814;9.318;2022-10-16T10:24:15;2.97;;;1.53;;
1336;SDS011;662;48.814;9.318;2022-10-16T10:26:44;1.80;;;1.70;;
1336;SDS011;662;48.814;9.318;2022-10-16T10:29:34;4.30;;;1.90;;
1336;SDS011;662;48.814;9.318;2022-10-16T10:32:13;6.10;;;1.40;;
1336;SDS011;662;48.814;9.318;2022-10-16T10:39:57;4.03;;;1.57;;
1336;SDS011;662;48.814;9.318;2022-10-16T10:43:00;5.43;;;1.80;;
1336;SDS011;662;48.814;9.318;2022-10-16T10:45:27;2.00;;;1.80;;
1336;SDS011;662;48.814;9.318;2022-10-16T10:53:46;4.10;;;2.93;;
1336;SDS011;662;48.814;9.318;2022-10-16T10:56:41;7.80;;;1.63;;
1336;SDS011;662;48.814;9.318;2022-10-16T11:08:03;1.90;;;1.37;;
1336;SDS011;662;48.814;9.318;2022-10-16T11:10:49;2.30;;;1.63;;
1336;SDS011;662;48.814;9.318;2022-10-16T11:16:26;1.10;;;1.10;;
1336;SDS011;662;48.814;9.318;2022-10-16T11:18:59;4.93;;;1.40;;
1336;SDS011;662;48.814;9.318;2022-10-16T11:21:47;1.27;;;1.17;;
1336;SDS011;662;48.814;9.318;2022-10-16T11:24:22;4.80;;;1.67;;
1336;SDS011;662;48.814;9.318;2022-10-16T11:26:55;1.97;;;1.87;;
1336;SDS011;662;48.814;9.318;2022-10-16T11:29:25;2.50;;;1.50;;
1336;SDS011;662;48.814;9.318;2022-10-16T11:31:55;3.27;;;1.30;;
1336;SDS011;662;48.814;9.318;2022-10-16T11:34:26;1.40;;;1.30;;
1336;SDS011;662;48.814;9.318;2022-10-16T11:37:05;1.97;;;1.43;;
1336;SDS011;662;48.814;9.318;2022-10-16T11:39:37;5.73;;;2.70;;
1336;SDS011;662;48.814;9.318;2022-10-16T11:42:07;3.30;;;1.50;;
1336;SDS011;662;48.814;9.318;2022-10-16T11:44:51;2.43;;;1.80;;
1336;SDS011;662;48.814;9.318;2022-10-16T11:47:40;1.20;;;1.13;;
1336;SDS011;662;48.814;9.318;2022-10-16T11:50:27;3.33;;;1.40;;
1336;SDS011;662;48.814;9.318;2022-10-16T11:53:04;2.13;;;1.43;;
1336;SDS011;662;48.814;9.318;2022-10-16T11:55:36;1.80;;;1.50;;
1336;SDS011;662;48.814;9.318;2022-10-16T11:58:05;1.77;;;1.23;;
1336;SDS011;662;48.814;9.318;2022-10-16T12:00:47;2.17;;;1.43;;
1336;SDS011;662;48.814;9.318;2022-10-16T12:03:38;1.77;;;1.30;;
1336;SDS011;662;48.814;9.318;2022-10-16T12:08:51;2.80;;;1.70;;
1336;SDS011;662;48.814;9.318;2022-10-16T12:14:06;5.17;;;1.77;;
1336;SDS011;662;48.814;9.318;2022-10-16T12:16:32;5.97;;;1.57;;
1336;SDS011;662;48.814;9.318;2022-10-16T12:19:11;3.07;;;1.27;;
1336;SDS011;662;48.814;9.318;2022-10-16T12:21:40;1.40;;;1.30;;
1336;SDS011;662;48.814;9.318;2022-10-16T12:24:18;1.60;;;1.27;;
1336;SDS011;662;48.814;9.318;2022-10-16T12:27:00;1.63;;;1.50;;
1336;SDS011;662;48.814;9.318;2022-10-16T12:31:59;1.77;;;1.50;;
1336;SDS011;662;48.814;9.318;2022-10-16T12:34:41;4.03;;;1.70;;
1336;SDS011;662;48.814;9.318;2022-10-16T12:37:13;1.30;;;1.20;;
1336;SDS011;662;48.814;9.318;2022-10-16T12:39:48;3.70;;;1.27;;
1336;SDS011;662;48.814;9.318;2022-10-16T12:44:52;1.30;;;1.20;;
1336;SDS011;662;48.814;9.318;2022-10-16T12:49:58;1.57;;;1.20;;
1336;SDS011;662;48.814;9.318;2022-10-16T12:54:58;2.40;;;1.57;;
1336;SDS011;662;48.814;9.318;2022-10-16T13:00:15;3.10;;;1.80;;
1336;SDS011;662;48.814;9.318;2022-10-16T13:08:25;2.23;;;1.50;;
1336;SDS011;662;48.814;9.318;2022-10-16T13:19:38;2.13;;;1.93;;
1336;SDS011;662;48.814;9.318;2022-10-16T13:27:35;1.60;;;1.50;;
1336;SDS011;662;48.814;9.318;2022-10-16T13:32:37;1.70;;;1.60;;
1336;SDS011;662;48.814;9.318;2022-10-16T13:35:03;5.90;;;1.83;;
1336;SDS011;662;48.814;9.318;2022-10-16T13:37:44;1.93;;;1.80;;
1336;SDS011;662;48.814;9.318;2022-10-16T13:40:24;4.07;;;1.90;;
1336;SDS011;662;48.814;9.318;2022-10-16T13:42:50;1.80;;;1.50;;
1336;SDS011;662;48.814;9.318;2022-10-16T13:45:21;2.87;;;1.83;;
1336;SDS011;662;48.814;9.318;2022-10-16T13:47:50;2.23;;;1.60;;
1336;SDS011;662;48.814;9.318;2022-10-16T13:50:26;1.90;;;1.40;;
1336;SDS011;662;48.814;9.318;2022-10-16T13:52:51;3.00;;;1.37;;
1336;SDS011;662;48.814;9.318;2022-10-16T13:55:17;2.50;;;1.70;;
1336;SDS011;662;48.814;9.318;2022-10-16T13:57:44;1.53;;;1.43;;
1336;SDS011;662;48.814;9.318;2022-10-16T14:00:23;1.60;;;1.50;;
1336;SDS011;662;48.814;9.318;2022-10-16T14:03:04;4.03;;;2.00;;
1336;SDS011;662;48.814;9.318;2022-10-16T14:05:42;3.20;;;1.60;;
1336;SDS011;662;48.814;9.318;2022-10-16T14:08:12;3.57;;;1.93;;
1336;SDS011;662;48.814;9.318;2022-10-16T14:10:38;1.93;;;1.67;;
1336;SDS011;662;48.814;9.318;2022-10-16T14:13:05;4.00;;;1.70;;
1336;SDS011;662;48.814;9.318;2022-10-16T14:15:32;2.83;;;1.60;;
1336;SDS011;662;48.814;9.318;2022-10-16T14:18:00;2.10;;;1.47;;
1336;SDS011;662;48.814;9.318;2022-10-16T14:20:26;3.37;;;1.53;;
1336;SDS011;662;48.814;9.318;2022-10-16T14:22:59;3.53;;;1.93;;
1336;SDS011;662;48.814;9.318;2022-10-16T14:25:27;8.30;;;1.70;;
1336;SDS011;662;48.814;9.318;2022-10-16T14:28:13;1.70;;;1.60;;
1336;SDS011;662;48.814;9.318;2022-10-16T14:30:51;2.47;;;1.40;;
1336;SDS011;662;48.814;9.318;2022-10-16T14:33:22;2.40;;;1.60;;
1336;SDS011;662;48.814;9.318;2022-10-16T14:36:00;2.20;;;1.80;;
1336;SDS011;662;48.814;9.318;2022-10-16T14:38:29;1.67;;;1.57;;
1336;SDS011;662;48.814;9.318;2022-10-16T14:40:56;1.67;;;1.50;;
1336;SDS011;662;48.814;9.318;2022-10-16T14:43:36;3.20;;;1.57;;
1336;SDS011;662;48.814;9.318;2022-10-16T14:46:11;1.73;;;1.63;;
1336;SDS011;662;48.814;9.318;2022-10-16T14:48:42;5.00;;;1.70;;
1336;SDS011;662;48.814;9.318;2022-10-16T14:51:20;2.23;;;1.67;;
1336;SDS011;662;48.814;9.318;2022-10-16T14:53:46;2.10;;;1.90;;
1336;SDS011;662;48.814;9.318;2022-10-16T14:56:18;2.33;;;1.90;;
1336;SDS011;662;48.814;9.318;2022-10-16T14:58:49;2.10;;;1.80;;
1336;SDS011;662;48.814;9.318;2022-10-16T15:01:16;2.00;;;1.73;;
1336;SDS011;662;48.814;9.318;2022-10-16T15:03:42;2.10;;;1.90;;
1336;SDS011;662;48.814;9.318;2022-10-16T15:06:12;1.93;;;1.80;;
1336;SDS011;662;48.814;9.318;2022-10-16T15:08:41;2.67;;;1.80;;
1336;SDS011;662;48.814;9.318;2022-10-16T15:11:09;1.73;;;1.63;;
1336;SDS011;662;48.814;9.318;2022-10-16T15:13:38;1.70;;;1.60;;
1336;SDS011;662;48.814;9.318;2022-10-16T15:16:04;4.40;;;1.67;;
1336;SDS011;662;48.814;9.318;2022-10-16T15:18:29;3.43;;;2.10;;
1336;SDS011;662;48.814;9.318;2022-10-16T15:20:55;2.70;;;1.57;;
1336;SDS011;662;48.814;9.318;2022-10-16T15:23:21;7.57;;;2.23;;
1336;SDS011;662;48.814;9.318;2022-10-16T15:25:48;5.50;;;1.97;;
1336;SDS011;662;48.814;9.318;2022-10-16T15:28:19;2.63;;;1.73;;
1336;SDS011;662;48.814;9.318;2022-10-16T15:30:45;1.93;;;1.70;;
1336;SDS011;662;48.814;9.318;2022-10-16T15:33:19;4.40;;;2.30;;
1336;SDS011;662;48.814;9.318;2022-10-16T15:35:48;2.07;;;1.97;;
1336;SDS011;662;48.814;9.318;2022-10-16T15:38:15;5.10;;;1.80;;
1336;SDS011;662;48.814;9.318;2022-10-16T15:40:42;5.53;;;2.40;;
1336;SDS011;662;48.814;9.318;2022-10-16T15:43:08;5.60;;;2.67;;
1336;SDS011;662;48.814;9.318;2022-10-16T15:45:34;3.70;;;3.10;;
1336;SDS011;662;48.814;9.318;2022-10-16T15:48:00;6.00;;;3.20;;
1336;SDS011;662;48.814;9.318;2022-10-16T15:50:26;4.80;;;3.93;;
1336;SDS011;662;48.814;9.318;2022-10-16T15:52:51;9.43;;;4.20;;
1336;SDS011;662;48.814;9.318;2022-10-16T15:55:17;4.97;;;4.13;;
1336;SDS011;662;48.814;9.318;2022-10-16T15:57:44;4.80;;;4.07;;
1336;SDS011;662;48.814;9.318;2022-10-16T16:00:19;6.93;;;2.50;;
1336;SDS011;662;48.814;9.318;2022-10-16T16:02:51;3.10;;;2.80;;
1336;SDS011;662;48.814;9.318;2022-10-16T16:05:17;8.30;;;2.80;;
1336;SDS011;662;48.814;9.318;2022-10-16T16:07:45;7.00;;;2.80;;
1336;SDS011;662;48.814;9.318;2022-10-16T16:10:10;8.30;;;2.77;;
1336;SDS011;662;48.814;9.318;2022-10-16T16:12:37;3.80;;;2.80;;
1336;SDS011;662;48.814;9.318;2022-10-16T16:15:03;5.27;;;2.70;;
1336;SDS011;662;48.814;9.318;2022-10-16T16:17:31;4.70;;;2.30;;
1336;SDS011;662;48.814;9.318;2022-10-16T16:19:57;3.40;;;2.40;;
1336;SDS011;662;48.814;9.318;2022-10-16T16:22:23;3.80;;;2.30;;
1336;SDS011;662;48.814;9.318;2022-10-16T16:24:49;2.40;;;2.20;;
1336;SDS011;662;48.814;9.318;2022-10-16T16:27:15;2.60;;;2.40;;
1336;SDS011;662;48.814;9.318;2022-10-16T16:29:40;9.17;;;3.23;;
1336;SDS011;662;48.814;9.318;2022-10-16T16:32:06;4.73;;;2.40;;
1336;SDS011;662;48.814;9.318;2022-10-16T16:34:31;2.43;;;2.03;;
1336;SDS011;662;48.814;9.318;2022-10-16T16:36:57;4.97;;;2.33;;
1336;SDS011;662;48.814;9.318;2022-10-16T16:39:22;6.40;;;2.53;;
1336;SDS011;662;48.814;9.318;2022-10-16T16:41:48;8.40;;;2.70;;
1336;SDS011;662;48.814;9.318;2022-10-16T16:44:15;4.53;;;2.80;;
1336;SDS011;662;48.814;9.318;2022-10-16T16:46:42;2.70;;;2.27;;
1336;SDS011;662;48.814;9.318;2022-10-16T16:49:09;9.43;;;2.53;;
1336;SDS011;662;48.814;9.318;2022-10-16T16:51:36;2.83;;;2.57;;
1336;SDS011;662;48.814;9.318;2022-10-16T16:54:03;5.63;;;2.80;;
1336;SDS011;662;48.814;9.318;2022-10-16T16:56:28;5.53;;;2.60;;
1336;SDS011;662;48.814;9.318;2022-10-16T16:58:55;4.13;;;2.73;;
1336;SDS011;662;48.814;9.318;2022-10-16T17:01:22;4.20;;;3.07;;
1336;SDS011;662;48.814;9.318;2022-10-16T17:03:50;3.70;;;3.10;;
1336;SDS011;662;48.814;9.318;2022-10-16T17:06:18;3.80;;;3.50;;
1336;SDS011;662;48.814;9.318;2022-10-16T17:08:45;5.53;;;3.93;;